Date,TemperatureHighF,TemperatureAvgF,TemperatureLowF,DewpointHighF,DewpointAvgF,DewpointLowF,HumidityHigh,HumidityAvg,HumidityLow,PressureMaxIn,PressureMinIn,WindSpeedMaxMPH,WindSpeedAvgMPH,GustSpeedMaxMPH,PrecipitationSumIn
2013-3-1,56.0,51.7,47.0,-99.9,-99.9,-99.9,0,0,100,30.06,29.96,16,10,21,0.00
2013-3-2,51.0,46.1,42.0,-99.9,-99.9,-99.9,0,0,100,30.08,29.97,25,13,33,0.00
2013-3-3,45.0,41.1,38.0,-99.9,-99.9,-99.9,0,0,100,30.19,30.04,21,13,28,0.00
2013-3-4,56.0,46.8,37.0,-99.9,-99.9,-99.9,0,0,100,30.28,30.17,15,8,18,0.00
2013-3-5,72.0,60.2,47.0,-99.9,-99.9,-99.9,0,0,100,30.24,29.93,27,12,33,0.00
2013-3-6,64.0,51.8,45.0,-99.9,-99.9,-99.9,0,0,100,30.19,29.90,29,18,37,0.00
2013-3-7,56.0,47.3,39.0,-99.9,-99.9,-99.9,0,0,100,30.29,30.19,14,7,18,0.00
2013-3-8,57.0,53.0,48.0,-99.9,-99.9,-99.9,0,0,100,30.30,30.22,17,8,21,0.00
2013-3-9,60.0,57.2,51.0,-99.9,-99.9,-99.9,0,0,100,30.35,30.23,21,12,24,0.00
2013-3-10,69.0,63.0,58.0,-99.9,-99.9,-99.9,0,0,100,30.28,30.20,13,8,18,0.00
2013-3-11,72.0,66.1,60.0,-99.9,-99.9,-99.9,0,0,100,30.21,29.97,15,8,24,0.00
2013-3-12,68.0,65.1,58.0,-99.9,-99.9,-99.9,0,0,100,30.07,29.90,15,9,23,0.00
2013-3-13,67.0,57.8,49.0,-99.9,-99.9,-99.9,0,0,100,30.24,30.06,17,10,22,0.00
2013-3-14,58.0,49.0,43.0,-99.9,-99.9,-99.9,0,0,100,30.36,30.22,17,-19,23,0.00
2013-3-15,64.0,53.9,44.0,-99.9,-99.9,-99.9,0,0,100,30.34,30.18,11,6,17,0.00
2013-3-16,77.0,64.1,54.0,-99.9,-99.9,-99.9,0,0,100,30.22,30.04,17,12,23,0.00
2013-3-17,73.0,63.7,54.0,-99.9,-99.9,-99.9,0,0,100,30.18,30.05,13,8,19,0.00
2013-3-18,77.0,67.4,62.0,-99.9,-99.9,-99.9,0,0,100,30.12,29.93,15,-50,19,0.00
2013-3-19,77.0,67.6,62.0,-99.9,-99.9,-99.9,0,0,100,30.07,29.93,22,-6,39,0.00
2013-3-20,66.0,60.1,55.0,-99.9,-99.9,-99.9,0,0,100,30.08,29.90,25,12,32,0.00
2013-3-21,65.0,55.2,46.0,-99.9,-99.9,-99.9,0,0,100,30.01,29.91,16,8,22,0.00
2013-3-22,60.0,55.8,52.0,-99.9,-99.9,-99.9,0,0,100,30.13,29.99,19,10,23,0.00
2013-3-23,70.0,62.4,56.0,-99.9,-99.9,-99.9,0,0,100,30.07,29.85,22,1,26,0.00
2013-3-24,82.0,71.5,62.0,-99.9,-99.9,-99.9,0,0,100,29.86,29.58,23,14,32,0.00
2013-3-25,70.0,58.8,49.0,-99.9,-99.9,-99.9,0,0,100,30.08,29.65,27,17,35,0.00
2013-3-26,53.0,47.2,41.0,-99.9,-99.9,-99.9,0,0,100,30.31,30.08,25,13,32,0.00
2013-3-27,54.0,45.6,37.0,-99.9,-99.9,-99.9,0,0,100,30.36,30.27,15,7,20,0.00
2013-3-28,60.0,51.7,43.0,-99.9,-99.9,-99.9,0,0,100,30.36,30.28,17,-21,20,0.00
2013-3-29,63.0,56.3,48.0,-99.9,-99.9,-99.9,0,0,100,30.39,30.28,14,6,15,0.00
2013-3-30,73.0,61.6,51.0,-99.9,-99.9,-99.9,0,0,100,30.32,30.17,16,7,21,0.00
2013-3-31,78.0,67.0,56.0,-99.9,-99.9,-99.9,0,0,100,30.20,30.02,20,10,26,0.00